createdAt,value
2024-03-19T00:00:13.037Z,6.38
2024-03-19T00:01:13.033Z,6.40
2024-03-19T00:02:12.886Z,6.42
2024-03-19T00:03:12.916Z,6.43
2024-03-19T00:04:12.879Z,6.43
2024-03-19T00:05:12.844Z,6.44
2024-03-19T00:06:12.861Z,6.44
2024-03-19T00:07:12.853Z,6.45
2024-03-19T00:08:12.807Z,6.46
2024-03-19T00:10:25.607Z,7.55
2024-03-19T00:11:25.617Z,7.12
2024-03-19T00:12:25.618Z,6.83
2024-03-19T00:13:25.574Z,6.65
2024-03-19T00:14:25.574Z,6.55
2024-03-19T00:15:25.553Z,6.50
2024-03-19T00:16:25.564Z,6.46
2024-03-19T00:17:25.857Z,6.43
2024-03-19T00:18:25.596Z,6.41
2024-03-19T00:19:25.522Z,6.39
2024-03-19T00:20:25.832Z,6.37
2024-03-19T00:21:25.803Z,6.35
2024-03-19T00:22:25.490Z,6.34
2024-03-19T00:23:25.483Z,6.33
2024-03-19T00:24:25.490Z,6.32
2024-03-19T00:25:25.493Z,6.31
2024-03-19T00:26:25.447Z,6.30
2024-03-19T00:27:25.427Z,6.30
2024-03-19T00:28:25.674Z,6.30
2024-03-19T00:29:25.427Z,6.30
2024-03-19T00:30:25.744Z,6.30
2024-03-19T00:31:25.384Z,6.30
2024-03-19T00:32:25.389Z,6.29
2024-03-19T00:33:25.656Z,6.29
2024-03-19T00:34:25.373Z,6.30
2024-03-19T00:35:25.363Z,6.30
2024-03-19T00:36:25.656Z,6.29
2024-03-19T00:37:25.330Z,6.28
2024-03-19T00:38:25.301Z,6.26
2024-03-19T00:39:25.314Z,6.25
2024-03-19T00:40:25.314Z,6.24
2024-03-19T00:41:25.286Z,6.23
2024-03-19T00:42:25.322Z,6.22
2024-03-19T00:43:25.513Z,6.20
2024-03-19T00:44:25.260Z,6.19
2024-03-19T00:45:25.551Z,6.17
2024-03-19T00:46:25.626Z,6.16
2024-03-19T00:47:25.490Z,6.15
2024-03-19T00:48:25.267Z,6.13
2024-03-19T00:49:25.180Z,6.13
2024-03-19T00:50:25.202Z,6.13
2024-03-19T00:51:25.460Z,6.14
2024-03-19T00:52:25.415Z,6.14
2024-03-19T00:53:25.439Z,6.14
2024-03-19T00:54:25.177Z,6.14
2024-03-19T00:55:25.125Z,6.13
2024-03-19T00:56:25.128Z,6.12
2024-03-19T00:57:25.088Z,6.10
2024-03-19T00:58:25.169Z,6.08
2024-03-19T00:59:25.097Z,6.07
2024-03-19T01:00:25.074Z,6.05
2024-03-19T01:01:25.066Z,6.04
2024-03-19T01:02:25.327Z,6.03
2024-03-19T01:03:25.053Z,6.04
2024-03-19T01:04:25.508Z,6.05
2024-03-19T01:05:25.067Z,6.06
2024-03-19T01:06:25.132Z,6.07
2024-03-19T01:07:25.009Z,6.08
2024-03-19T01:08:25.011Z,6.09
2024-03-19T01:09:24.974Z,6.09
2024-03-19T01:10:24.996Z,6.08
2024-03-19T01:11:25.059Z,6.06
2024-03-19T01:12:24.937Z,6.04
2024-03-19T01:13:25.273Z,6.02
2024-03-19T01:14:24.930Z,6.01
2024-03-19T01:15:25.204Z,6.00
2024-03-19T01:16:25.213Z,5.99
2024-03-19T01:17:24.903Z,5.98
2024-03-19T01:18:24.920Z,5.98
2024-03-19T01:19:24.904Z,5.98
2024-03-19T01:20:24.849Z,5.97
2024-03-19T01:21:24.854Z,5.97
2024-03-19T01:22:24.853Z,5.96
2024-03-19T01:23:24.906Z,5.96
2024-03-19T01:24:24.835Z,5.95
2024-03-19T01:25:24.827Z,5.94
2024-03-19T01:26:24.802Z,5.92
2024-03-19T01:27:25.040Z,5.90
2024-03-19T01:28:24.756Z,5.88
2024-03-19T01:29:24.744Z,5.86
2024-03-19T01:30:25.082Z,5.84
2024-03-19T01:31:24.745Z,5.83
2024-03-19T01:32:24.726Z,5.83
2024-03-19T01:33:24.703Z,5.83
2024-03-19T01:34:24.711Z,5.82
2024-03-19T01:35:24.699Z,5.82
2024-03-19T01:36:24.694Z,5.82
2024-03-19T01:37:24.662Z,5.81
2024-03-19T01:38:24.670Z,5.80
2024-03-19T01:39:24.656Z,5.78
2024-03-19T01:40:24.660Z,5.76
2024-03-19T01:41:24.627Z,5.73
2024-03-19T01:42:24.611Z,5.71
2024-03-19T01:43:24.596Z,5.70
2024-03-19T01:44:24.586Z,5.70
2024-03-19T01:45:24.571Z,5.69
2024-03-19T01:46:24.670Z,5.68
2024-03-19T01:47:24.561Z,5.67
2024-03-19T01:48:24.536Z,5.66
2024-03-19T01:49:24.552Z,5.64
2024-03-19T01:50:24.519Z,5.63
2024-03-19T01:51:24.541Z,5.63
2024-03-19T01:52:24.589Z,5.62
2024-03-19T01:53:24.749Z,5.62
2024-03-19T01:54:24.522Z,5.60
2024-03-19T01:55:24.457Z,5.58
2024-03-19T01:56:24.578Z,5.56
2024-03-19T01:57:24.482Z,5.54
2024-03-19T01:58:24.430Z,5.52
2024-03-19T01:59:24.433Z,5.50
2024-03-19T02:00:24.437Z,5.49
2024-03-19T02:01:24.651Z,5.49
2024-03-19T02:02:24.386Z,5.50
2024-03-19T02:03:24.367Z,5.51
2024-03-19T02:04:24.418Z,5.53
2024-03-19T02:05:24.366Z,5.54
2024-03-19T02:06:24.367Z,5.55
2024-03-19T02:07:24.399Z,5.54
2024-03-19T02:08:24.313Z,5.53
2024-03-19T02:09:24.308Z,5.52
2024-03-19T02:10:24.319Z,5.50
2024-03-19T02:11:24.302Z,5.48
2024-03-19T02:12:24.324Z,5.45
2024-03-19T02:13:27.162Z,5.43
2024-03-19T02:14:24.296Z,5.40
2024-03-19T02:15:24.256Z,5.38
2024-03-19T02:16:24.262Z,5.37
2024-03-19T02:17:24.219Z,5.36
2024-03-19T02:18:24.249Z,5.36
2024-03-19T02:19:24.223Z,5.37
2024-03-19T02:20:24.216Z,5.37
2024-03-19T02:21:24.196Z,5.39
2024-03-19T02:22:24.307Z,5.40
2024-03-19T02:23:24.190Z,5.41
2024-03-19T02:24:24.197Z,5.42
2024-03-19T02:25:24.135Z,5.43
2024-03-19T02:26:24.149Z,5.43
2024-03-19T02:27:24.149Z,5.43
2024-03-19T02:28:24.121Z,5.43
2024-03-19T02:29:24.113Z,5.43
2024-03-19T02:30:24.153Z,5.42
2024-03-19T02:31:24.076Z,5.41
2024-03-19T02:32:24.084Z,5.40
2024-03-19T02:33:24.105Z,5.39
2024-03-19T02:34:24.072Z,5.37
2024-03-19T02:35:24.025Z,5.36
2024-03-19T02:36:24.032Z,5.36
2024-03-19T02:37:24.068Z,5.35
2024-03-19T02:38:24.030Z,5.35
2024-03-19T02:39:23.989Z,5.35
2024-03-19T02:40:23.974Z,5.35
2024-03-19T02:41:24.013Z,5.34
2024-03-19T02:42:23.946Z,5.32
2024-03-19T02:43:23.993Z,5.31
2024-03-19T02:44:23.926Z,5.29
2024-03-19T02:45:23.972Z,5.27
2024-03-19T02:46:23.904Z,5.25
2024-03-19T02:47:23.896Z,5.23
2024-03-19T02:48:23.896Z,5.21
2024-03-19T02:49:23.915Z,5.19
2024-03-19T02:50:23.861Z,5.19
2024-03-19T02:51:23.872Z,5.18
2024-03-19T02:52:23.839Z,5.17
2024-03-19T02:53:23.846Z,5.16
2024-03-19T02:54:23.829Z,5.14
2024-03-19T02:55:23.871Z,5.12
2024-03-19T02:56:23.813Z,5.10
2024-03-19T02:57:23.812Z,5.09
2024-03-19T02:58:23.794Z,5.08
2024-03-19T02:59:23.795Z,5.06
2024-03-19T03:00:23.877Z,5.06
2024-03-19T03:01:23.777Z,5.07
2024-03-19T03:02:23.734Z,5.07
2024-03-19T03:03:23.771Z,5.07
2024-03-19T03:04:23.741Z,5.07
2024-03-19T03:05:23.736Z,5.07
2024-03-19T03:06:23.716Z,5.07
2024-03-19T03:07:23.726Z,5.06
2024-03-19T03:08:23.722Z,5.05
2024-03-19T03:09:23.707Z,5.04
2024-03-19T03:10:23.667Z,5.03
2024-03-19T03:11:23.717Z,5.02
2024-03-19T03:12:23.683Z,5.02
2024-03-19T03:13:23.613Z,5.02
2024-03-19T03:14:23.636Z,5.01
2024-03-19T03:15:23.597Z,5.01
2024-03-19T03:16:23.654Z,5.01
2024-03-19T03:17:23.580Z,5.00
2024-03-19T03:18:23.561Z,5.00
2024-03-19T03:19:23.552Z,5.00
2024-03-19T03:20:23.559Z,4.99
2024-03-19T03:21:23.536Z,4.98
2024-03-19T03:22:23.572Z,4.98
2024-03-19T03:23:23.520Z,4.97
2024-03-19T03:24:23.496Z,4.97
2024-03-19T03:25:23.494Z,4.96
2024-03-19T03:26:23.535Z,4.95
2024-03-19T03:27:23.508Z,4.94
2024-03-19T03:28:23.458Z,4.93
2024-03-19T03:29:23.467Z,4.91
2024-03-19T03:30:23.492Z,4.90
2024-03-19T03:31:23.446Z,4.89
2024-03-19T03:32:23.433Z,4.88
2024-03-19T03:33:23.403Z,4.87
2024-03-19T03:34:23.453Z,4.85
2024-03-19T03:35:23.388Z,4.84
2024-03-19T03:36:23.414Z,4.84
2024-03-19T03:37:23.478Z,4.83
2024-03-19T03:38:23.373Z,4.82
2024-03-19T03:39:23.377Z,4.82
2024-03-19T03:40:23.367Z,4.82
2024-03-19T03:41:23.333Z,4.82
2024-03-19T03:42:27.603Z,4.81
2024-03-19T03:43:23.408Z,4.80
2024-03-19T03:44:23.318Z,4.80
2024-03-19T03:45:23.321Z,4.80
2024-03-19T03:46:23.263Z,4.80
2024-03-19T03:47:23.293Z,4.80
2024-03-19T03:48:23.298Z,4.79
2024-03-19T03:49:23.241Z,4.78
2024-03-19T03:50:23.237Z,4.77
2024-03-19T03:51:23.229Z,4.76
2024-03-19T03:52:23.237Z,4.75
2024-03-19T03:53:23.217Z,4.74
2024-03-19T03:54:23.274Z,4.73
2024-03-19T03:55:23.178Z,4.72
2024-03-19T03:56:23.145Z,4.71
2024-03-19T03:57:23.150Z,4.69
2024-03-19T03:58:23.130Z,4.68
2024-03-19T03:59:23.148Z,4.67
2024-03-19T04:00:23.119Z,4.67
2024-03-19T04:01:23.162Z,4.66
2024-03-19T04:02:23.136Z,4.66
2024-03-19T04:03:23.079Z,4.65
2024-03-19T04:04:23.084Z,4.65
2024-03-19T04:05:23.111Z,4.65
2024-03-19T04:06:23.119Z,4.65
2024-03-19T04:07:23.046Z,4.65
2024-03-19T04:08:23.055Z,4.66
2024-03-19T04:09:31.124Z,4.67
2024-03-19T04:10:22.995Z,4.69
2024-03-19T04:11:22.990Z,4.71
2024-03-19T04:12:23.013Z,4.72
2024-03-19T04:13:22.999Z,4.73
2024-03-19T04:14:23.022Z,4.72
2024-03-19T04:15:22.965Z,4.70
2024-03-19T04:16:22.938Z,4.68
2024-03-19T04:17:22.939Z,4.68
2024-03-19T04:18:22.936Z,4.68
2024-03-19T04:19:22.994Z,4.68
2024-03-19T04:20:22.958Z,4.67
2024-03-19T04:21:22.888Z,4.67
2024-03-19T04:22:22.899Z,4.67
2024-03-19T04:23:22.845Z,4.68
2024-03-19T04:24:22.860Z,4.67
2024-03-19T04:25:22.839Z,4.66
2024-03-19T04:26:22.832Z,4.64
2024-03-19T04:27:22.808Z,4.62
2024-03-19T04:28:22.804Z,4.60
2024-03-19T04:29:22.801Z,4.58
2024-03-19T04:30:22.832Z,4.56
2024-03-19T04:31:22.769Z,4.55
2024-03-19T04:32:22.760Z,4.54
2024-03-19T04:33:22.752Z,4.54
2024-03-19T04:34:22.756Z,4.53
2024-03-19T04:35:22.806Z,4.52
2024-03-19T04:36:22.721Z,4.51
2024-03-19T04:37:22.728Z,4.50
2024-03-19T04:38:22.718Z,4.48
2024-03-19T04:39:22.692Z,4.47
2024-03-19T04:40:22.757Z,4.45
2024-03-19T04:41:22.668Z,4.43
2024-03-19T04:42:22.644Z,4.42
2024-03-19T04:43:22.680Z,4.40
2024-03-19T04:44:22.649Z,4.39
2024-03-19T04:45:22.646Z,4.37
2024-03-19T04:46:22.610Z,4.36
2024-03-19T04:47:22.620Z,4.36
2024-03-19T04:48:22.588Z,4.35
2024-03-19T04:49:22.593Z,4.34
2024-03-19T04:50:22.606Z,4.32
2024-03-19T04:51:22.572Z,4.31
2024-03-19T04:52:22.551Z,4.30
2024-03-19T04:53:22.528Z,4.28
2024-03-19T04:54:22.583Z,4.26
2024-03-19T04:55:22.504Z,4.25
2024-03-19T04:56:22.499Z,4.23
2024-03-19T04:57:22.521Z,4.22
2024-03-19T04:58:22.513Z,4.22
2024-03-19T04:59:22.492Z,4.21
2024-03-19T05:00:22.458Z,4.20
2024-03-19T05:01:22.451Z,4.20
2024-03-19T05:02:22.521Z,4.20
2024-03-19T05:03:22.421Z,4.21
2024-03-19T05:04:22.421Z,4.22
2024-03-19T05:05:22.421Z,4.24
2024-03-19T05:06:22.418Z,4.24
2024-03-19T05:07:22.492Z,4.24
2024-03-19T05:08:22.375Z,4.24
2024-03-19T05:09:22.414Z,4.23
2024-03-19T05:10:22.408Z,4.21
2024-03-19T05:11:22.348Z,4.19
2024-03-19T05:12:22.404Z,4.17
2024-03-19T05:13:22.353Z,4.15
2024-03-19T05:14:22.354Z,4.12
2024-03-19T05:15:22.438Z,4.11
2024-03-19T05:16:22.299Z,4.11
2024-03-19T05:17:22.467Z,4.12
2024-03-19T05:18:22.327Z,4.12
2024-03-19T05:19:22.309Z,4.12
2024-03-19T05:20:22.418Z,4.12
2024-03-19T05:21:22.256Z,4.13
2024-03-19T05:22:22.220Z,4.12
2024-03-19T05:23:22.199Z,4.10
2024-03-19T05:24:22.600Z,4.09
2024-03-19T05:25:22.212Z,4.07
2024-03-19T05:26:22.213Z,4.05
2024-03-19T05:27:22.218Z,4.03
2024-03-19T05:28:22.217Z,4.01
2024-03-19T05:29:22.254Z,3.99
2024-03-19T05:30:22.189Z,3.96
2024-03-19T05:31:22.258Z,3.93
2024-03-19T05:32:22.174Z,3.91
2024-03-19T05:33:22.113Z,3.89
2024-03-19T05:34:22.092Z,3.88
2024-03-19T05:35:22.102Z,3.87
2024-03-19T05:36:22.076Z,3.87
2024-03-19T05:37:22.175Z,3.86
2024-03-19T05:38:22.037Z,3.84
2024-03-19T05:39:22.128Z,3.83
2024-03-19T05:40:22.285Z,3.81
2024-03-19T05:41:22.096Z,3.80
2024-03-19T05:42:22.061Z,3.80
2024-03-19T05:43:22.014Z,3.79
2024-03-19T05:44:22.021Z,3.78
2024-03-19T05:45:21.970Z,3.78
2024-03-19T05:46:22.316Z,3.79
2024-03-19T05:47:22.081Z,3.79
2024-03-19T05:48:22.043Z,3.79
2024-03-19T05:49:21.979Z,3.80
2024-03-19T05:50:21.926Z,3.80
2024-03-19T05:51:21.914Z,3.81
2024-03-19T05:52:21.942Z,3.82
2024-03-19T05:53:24.411Z,3.83
2024-03-19T05:54:21.906Z,3.83
2024-03-19T05:55:21.849Z,3.84
2024-03-19T05:56:21.835Z,3.83
2024-03-19T05:57:21.936Z,3.83
2024-03-19T05:58:21.911Z,3.83
2024-03-19T05:59:21.804Z,3.82
2024-03-19T06:00:21.825Z,3.82
2024-03-19T06:01:21.891Z,3.82
2024-03-19T06:02:21.807Z,3.82
2024-03-19T06:03:21.781Z,3.81
2024-03-19T06:04:21.764Z,3.81
2024-03-19T06:05:21.803Z,3.80
2024-03-19T06:06:21.729Z,3.79
2024-03-19T06:07:21.757Z,3.78
2024-03-19T06:08:21.710Z,3.76
2024-03-19T06:09:21.702Z,3.74
2024-03-19T06:10:21.716Z,3.73
2024-03-19T06:11:21.684Z,3.71
2024-03-19T06:12:21.686Z,3.70
2024-03-19T06:13:21.719Z,3.69
2024-03-19T06:14:21.709Z,3.68
2024-03-19T06:15:21.871Z,3.68
2024-03-19T06:16:21.660Z,3.68
2024-03-19T06:17:21.604Z,3.69
2024-03-19T06:18:21.626Z,3.70
2024-03-19T06:19:26.195Z,3.71
2024-03-19T06:20:22.585Z,3.73
2024-03-19T06:21:21.641Z,3.75
2024-03-19T06:22:21.601Z,3.78
2024-03-19T06:23:21.582Z,3.80
2024-03-19T06:24:21.573Z,3.82
2024-03-19T06:25:21.547Z,3.84
2024-03-19T06:26:21.581Z,3.86
2024-03-19T06:27:21.630Z,3.88
2024-03-19T06:28:21.508Z,3.89
2024-03-19T06:29:21.526Z,3.90
2024-03-19T06:30:21.564Z,3.91
2024-03-19T06:31:21.456Z,3.92
2024-03-19T06:32:21.460Z,3.93
2024-03-19T06:33:21.457Z,3.95
2024-03-19T06:34:25.263Z,3.96
2024-03-19T06:35:21.417Z,3.98
2024-03-19T06:36:21.399Z,3.99
2024-03-19T06:37:21.396Z,4.00
2024-03-19T06:38:21.408Z,4.00
2024-03-19T06:39:21.467Z,4.01
2024-03-19T06:40:21.403Z,4.01
2024-03-19T06:41:21.363Z,4.00
2024-03-19T06:42:21.350Z,4.00
2024-03-19T06:43:21.379Z,3.99
2024-03-19T06:44:21.321Z,3.99
2024-03-19T06:45:21.340Z,3.99
2024-03-19T06:46:21.371Z,3.98
2024-03-19T06:47:21.314Z,3.98
2024-03-19T06:48:21.280Z,3.98
2024-03-19T06:49:21.257Z,3.98
2024-03-19T06:50:21.388Z,3.98
2024-03-19T06:51:21.235Z,3.97
2024-03-19T06:52:21.224Z,3.97
2024-03-19T06:53:21.219Z,3.97
2024-03-19T06:54:21.282Z,3.98
2024-03-19T06:55:21.280Z,3.98
2024-03-19T06:56:21.225Z,3.99
2024-03-19T06:57:21.178Z,4.00
2024-03-19T06:58:21.184Z,4.01
2024-03-19T06:59:21.200Z,4.01
2024-03-19T07:00:21.233Z,4.02
2024-03-19T07:01:21.155Z,4.03
2024-03-19T07:02:21.920Z,4.03
2024-03-19T07:03:21.733Z,4.03
2024-03-19T07:04:21.613Z,4.03
2024-03-19T07:05:21.545Z,4.02
2024-03-19T07:06:21.745Z,4.01
2024-03-19T07:07:22.072Z,4.01
2024-03-19T07:08:21.624Z,4.02
2024-03-19T07:09:21.114Z,4.02
2024-03-19T07:10:21.072Z,4.03
2024-03-19T07:11:21.020Z,4.03
2024-03-19T07:12:21.082Z,4.05
2024-03-19T07:13:21.048Z,4.07
2024-03-19T07:14:20.993Z,4.09
2024-03-19T07:15:21.051Z,4.11
2024-03-19T07:16:20.972Z,4.12
2024-03-19T07:17:23.166Z,4.12
2024-03-19T07:18:20.980Z,4.13
2024-03-19T07:19:20.937Z,4.14
2024-03-19T07:20:20.967Z,4.15
2024-03-19T07:21:20.928Z,4.16
2024-03-19T07:22:20.977Z,4.17
2024-03-19T07:23:20.928Z,4.18
2024-03-19T07:24:20.881Z,4.19
2024-03-19T07:25:20.935Z,4.20
2024-03-19T07:26:20.949Z,4.21
2024-03-19T07:27:20.850Z,4.21
2024-03-19T07:28:20.830Z,4.22
2024-03-19T07:29:20.839Z,4.22
2024-03-19T07:30:20.907Z,4.23
2024-03-19T07:31:20.829Z,4.24
2024-03-19T07:32:20.821Z,4.25
2024-03-19T07:33:20.780Z,4.26
2024-03-19T07:34:20.783Z,4.27
2024-03-19T07:35:20.951Z,4.29
2024-03-19T07:36:20.770Z,4.32
2024-03-19T07:37:20.735Z,4.34
2024-03-19T07:38:20.798Z,4.37
2024-03-19T07:39:20.753Z,4.40
2024-03-19T07:40:20.785Z,4.42
2024-03-19T07:41:20.912Z,4.45
2024-03-19T07:42:20.713Z,4.47
2024-03-19T07:43:20.863Z,4.49
2024-03-19T07:44:20.690Z,4.50
2024-03-19T07:45:20.689Z,4.51
2024-03-19T07:46:20.653Z,4.53
2024-03-19T07:47:20.768Z,4.54
2024-03-19T07:48:20.633Z,4.56
2024-03-19T07:49:20.618Z,4.57
2024-03-19T07:50:20.601Z,4.57
2024-03-19T07:51:20.715Z,4.57
2024-03-19T07:52:20.577Z,4.58
2024-03-19T07:53:20.594Z,4.60
2024-03-19T07:54:20.558Z,4.62
2024-03-19T07:55:20.637Z,4.64
2024-03-19T07:56:20.612Z,4.66
2024-03-19T07:57:20.542Z,4.69
2024-03-19T07:58:20.527Z,4.72
2024-03-19T07:59:20.503Z,4.75
2024-03-19T08:00:20.533Z,4.78
2024-03-19T08:01:20.517Z,4.81
2024-03-19T08:02:20.564Z,4.83
2024-03-19T08:03:20.533Z,4.86
2024-03-19T08:04:20.449Z,4.89
2024-03-19T08:05:20.499Z,4.91
2024-03-19T08:06:20.464Z,4.94
2024-03-19T08:07:20.487Z,4.96
2024-03-19T08:08:20.405Z,4.99
2024-03-19T08:09:20.429Z,5.02
2024-03-19T08:10:20.381Z,5.05
2024-03-19T08:11:20.374Z,5.07
2024-03-19T08:12:20.392Z,5.10
2024-03-19T08:13:20.349Z,5.13
2024-03-19T08:14:20.353Z,5.16
2024-03-19T08:15:20.352Z,5.19
2024-03-19T08:16:20.379Z,5.22
2024-03-19T08:17:20.443Z,5.25
2024-03-19T08:18:20.326Z,5.28
2024-03-19T08:19:20.288Z,5.31
2024-03-19T08:20:20.337Z,5.34
2024-03-19T08:21:20.296Z,5.37
2024-03-19T08:22:20.277Z,5.40
2024-03-19T08:23:20.394Z,5.43
2024-03-19T08:24:20.238Z,5.45
2024-03-19T08:25:20.264Z,5.48
2024-03-19T08:26:20.236Z,5.51
2024-03-19T08:27:20.221Z,5.54
2024-03-19T08:28:21.781Z,5.57
2024-03-19T08:29:20.214Z,5.60
2024-03-19T08:30:21.606Z,5.64
2024-03-19T08:31:20.147Z,5.69
2024-03-19T08:32:20.140Z,5.73
2024-03-19T08:33:20.200Z,5.76
2024-03-19T08:34:20.113Z,5.80
2024-03-19T08:35:20.114Z,5.83
2024-03-19T08:36:20.127Z,5.86
2024-03-19T08:37:20.152Z,5.89
2024-03-19T08:38:20.071Z,5.92
2024-03-19T08:39:20.248Z,5.96
2024-03-19T08:40:20.052Z,5.99
2024-03-19T08:41:20.042Z,6.03
2024-03-19T08:42:20.029Z,6.07
2024-03-19T08:43:20.182Z,6.11
2024-03-19T08:44:20.001Z,6.15
2024-03-19T08:45:20.074Z,6.19
2024-03-19T08:46:19.985Z,6.23
2024-03-19T08:47:20.009Z,6.27
2024-03-19T08:48:20.006Z,6.33
2024-03-19T08:49:19.956Z,6.38
2024-03-19T08:50:19.941Z,6.45
2024-03-19T08:51:20.027Z,6.54
2024-03-19T08:52:19.919Z,6.67
2024-03-19T08:53:19.944Z,6.79
2024-03-19T08:54:19.940Z,6.88
2024-03-19T08:55:20.051Z,6.96
2024-03-19T08:56:19.874Z,7.04
2024-03-19T08:57:19.860Z,7.14
2024-03-19T08:58:19.899Z,7.25
2024-03-19T08:59:19.903Z,7.35
2024-03-19T09:00:19.840Z,7.45
2024-03-19T09:01:19.888Z,7.54
2024-03-19T09:02:19.888Z,7.61
2024-03-19T09:03:19.852Z,7.68
2024-03-19T09:04:19.872Z,7.75
2024-03-19T09:05:19.797Z,7.82
2024-03-19T09:06:19.821Z,7.88
2024-03-19T09:07:19.774Z,7.93
2024-03-19T09:08:19.751Z,7.99
2024-03-19T09:09:19.786Z,8.06
2024-03-19T09:10:19.751Z,8.13
2024-03-19T09:11:20.749Z,8.20
2024-03-19T09:12:19.844Z,8.28
2024-03-19T09:13:19.702Z,8.36
2024-03-19T09:14:19.727Z,8.46
2024-03-19T09:15:19.685Z,8.54
2024-03-19T09:16:19.718Z,8.61
2024-03-19T09:17:19.663Z,8.65
2024-03-19T09:18:19.660Z,8.69
2024-03-19T09:19:19.700Z,8.72
2024-03-19T09:20:19.680Z,8.75
2024-03-19T09:21:19.609Z,8.79
2024-03-19T09:22:19.612Z,8.83
2024-03-19T09:23:19.587Z,8.88
2024-03-19T09:24:19.608Z,8.93
2024-03-19T09:25:19.560Z,9.00
2024-03-19T09:26:19.659Z,9.08
2024-03-19T09:27:19.559Z,9.15
2024-03-19T09:28:19.554Z,9.21
2024-03-19T09:29:19.553Z,9.27
2024-03-19T09:30:19.514Z,9.33
2024-03-19T09:31:19.495Z,9.41
2024-03-19T09:32:19.813Z,9.47
2024-03-19T09:33:19.563Z,9.53
2024-03-19T09:34:19.536Z,9.59
2024-03-19T09:35:19.459Z,9.66
2024-03-19T09:36:19.437Z,9.73
2024-03-19T09:37:19.451Z,9.80
2024-03-19T09:38:19.439Z,9.86
2024-03-19T09:39:19.470Z,9.90
2024-03-19T09:40:19.443Z,9.93
2024-03-19T09:41:19.448Z,9.95
2024-03-19T09:42:19.377Z,9.96
2024-03-19T09:43:19.364Z,9.97
2024-03-19T09:44:19.405Z,9.98
2024-03-19T09:45:19.345Z,9.99
2024-03-19T09:46:19.400Z,10.02
2024-03-19T09:47:21.791Z,10.06
2024-03-19T09:48:19.320Z,10.09
2024-03-19T09:49:19.307Z,10.12
2024-03-19T09:50:19.331Z,10.15
2024-03-19T09:51:19.282Z,10.19
2024-03-19T09:52:19.270Z,10.21
2024-03-19T09:53:19.263Z,10.21
2024-03-19T09:54:19.479Z,10.22
2024-03-19T09:55:19.256Z,10.25
2024-03-19T09:56:19.229Z,10.31
2024-03-19T09:57:19.290Z,10.36
2024-03-19T09:58:19.255Z,10.40
2024-03-19T09:59:19.242Z,10.41
2024-03-19T10:00:19.214Z,10.43
2024-03-19T10:01:19.176Z,10.45
2024-03-19T10:02:19.187Z,10.50
2024-03-19T10:03:19.187Z,10.55
2024-03-19T10:04:19.168Z,10.58
2024-03-19T10:05:19.124Z,10.59
2024-03-19T10:06:19.118Z,10.60
2024-03-19T10:07:19.158Z,10.60
2024-03-19T10:08:19.272Z,10.62
2024-03-19T10:09:19.099Z,10.64
2024-03-19T10:10:19.246Z,10.67
2024-03-19T10:11:19.075Z,10.70
2024-03-19T10:12:19.114Z,10.72
2024-03-19T10:13:19.041Z,10.75
2024-03-19T10:14:19.113Z,10.79
2024-03-19T10:15:19.040Z,10.82
2024-03-19T10:16:19.030Z,10.85
2024-03-19T10:17:19.049Z,10.88
2024-03-19T10:18:19.003Z,10.92
2024-03-19T10:19:19.045Z,10.95
2024-03-19T10:20:19.065Z,10.98
2024-03-19T10:21:19.057Z,11.00
2024-03-19T10:22:18.958Z,11.02
2024-03-19T10:23:18.930Z,11.03
2024-03-19T10:24:19.301Z,11.05
2024-03-19T10:25:18.957Z,11.08
2024-03-19T10:26:18.893Z,11.10
2024-03-19T10:27:18.926Z,11.11
2024-03-19T10:28:18.950Z,11.12
2024-03-19T10:29:18.868Z,11.12
2024-03-19T10:30:18.969Z,11.12
2024-03-19T10:31:18.900Z,11.12
2024-03-19T10:32:25.485Z,11.12
2024-03-19T10:33:19.820Z,11.11
2024-03-19T10:34:18.808Z,11.09
2024-03-19T10:35:18.814Z,11.08
2024-03-19T10:36:18.780Z,11.06
2024-03-19T10:37:19.028Z,11.05
2024-03-19T10:38:29.223Z,11.04
2024-03-19T10:39:19.790Z,11.06
2024-03-19T10:40:18.803Z,11.10
2024-03-19T10:41:18.738Z,11.14
2024-03-19T10:42:18.723Z,11.19
2024-03-19T10:43:18.724Z,11.23
2024-03-19T10:44:18.703Z,11.25
2024-03-19T10:45:18.752Z,11.25
2024-03-19T10:46:18.684Z,11.26
2024-03-19T10:47:18.691Z,11.28
2024-03-19T10:48:18.736Z,11.30
2024-03-19T10:49:18.639Z,11.31
2024-03-19T10:50:18.633Z,11.32
2024-03-19T10:51:18.734Z,11.35
2024-03-19T10:52:18.611Z,11.38
2024-03-19T10:53:18.613Z,11.41
2024-03-19T10:54:18.633Z,11.44
2024-03-19T10:55:18.661Z,11.47
2024-03-19T10:56:18.587Z,11.50
2024-03-19T10:57:18.586Z,11.54
2024-03-19T10:58:18.571Z,11.60
2024-03-19T10:59:18.537Z,11.65
2024-03-19T11:00:18.541Z,11.69
2024-03-19T11:01:18.537Z,11.71
2024-03-19T11:02:18.514Z,11.73
2024-03-19T11:03:18.553Z,11.75
2024-03-19T11:04:18.491Z,11.77
2024-03-19T11:05:18.481Z,11.78
2024-03-19T11:06:18.472Z,11.78
2024-03-19T11:07:18.482Z,11.78
2024-03-19T11:08:18.466Z,11.77
2024-03-19T11:09:18.424Z,11.76
2024-03-19T11:10:18.461Z,11.74
2024-03-19T11:11:18.438Z,11.71
2024-03-19T11:12:18.422Z,11.69
2024-03-19T11:13:18.424Z,11.67
2024-03-19T11:14:18.360Z,11.66
2024-03-19T11:15:18.372Z,11.65
2024-03-19T11:16:18.343Z,11.64
2024-03-19T11:17:18.340Z,11.63
2024-03-19T11:18:18.371Z,11.63
2024-03-19T11:19:18.347Z,11.62
2024-03-19T11:20:18.356Z,11.63
2024-03-19T11:21:18.310Z,11.64
2024-03-19T11:22:18.292Z,11.66
2024-03-19T11:23:18.268Z,11.67
2024-03-19T11:24:18.280Z,11.68
2024-03-19T11:25:18.289Z,11.69
2024-03-19T11:26:18.247Z,11.70
2024-03-19T11:27:18.241Z,11.71
2024-03-19T11:28:18.260Z,11.73
2024-03-19T11:29:18.227Z,11.74
2024-03-19T11:30:18.414Z,11.74
2024-03-19T11:31:18.216Z,11.75
2024-03-19T11:32:18.227Z,11.74
2024-03-19T11:33:18.300Z,11.73
2024-03-19T11:34:18.159Z,11.72
2024-03-19T11:35:18.148Z,11.71
2024-03-19T11:36:18.206Z,11.72
2024-03-19T11:37:18.237Z,11.72
2024-03-19T11:38:18.131Z,11.73
2024-03-19T11:39:18.096Z,11.76
2024-03-19T11:40:18.156Z,11.81
2024-03-19T11:41:27.381Z,11.88
2024-03-19T11:42:19.065Z,11.95
2024-03-19T11:43:18.105Z,12.01
2024-03-19T11:44:18.040Z,12.07
2024-03-19T11:45:18.053Z,12.12
2024-03-19T11:46:18.159Z,12.16
2024-03-19T11:47:18.033Z,12.20
2024-03-19T11:48:17.993Z,12.23
2024-03-19T11:49:17.982Z,12.25
2024-03-19T11:50:18.046Z,12.25
2024-03-19T11:51:17.986Z,12.26
2024-03-19T11:52:17.966Z,12.27
2024-03-19T11:53:17.961Z,12.30
2024-03-19T11:54:18.096Z,12.33
2024-03-19T11:55:17.961Z,12.37
2024-03-19T11:56:17.950Z,12.40
2024-03-19T11:57:17.898Z,12.43
2024-03-19T11:58:17.893Z,12.45
2024-03-19T11:59:17.868Z,12.45
2024-03-19T12:00:18.012Z,12.44
2024-03-19T12:01:18.210Z,12.45
2024-03-19T12:02:17.854Z,12.46
2024-03-19T12:03:17.864Z,12.47
2024-03-19T12:04:17.834Z,12.48
2024-03-19T12:05:17.837Z,12.47
2024-03-19T12:06:17.896Z,12.47
2024-03-19T12:07:17.853Z,12.47
2024-03-19T12:08:17.825Z,12.49
2024-03-19T12:09:17.761Z,12.51
2024-03-19T12:10:17.749Z,12.52
2024-03-19T12:11:17.788Z,12.55
2024-03-19T12:12:17.990Z,12.57
2024-03-19T12:13:17.729Z,12.59
2024-03-19T12:14:17.759Z,12.60
2024-03-19T12:15:17.724Z,12.61
2024-03-19T12:16:17.754Z,12.62
2024-03-19T12:17:17.698Z,12.64
2024-03-19T12:18:17.738Z,12.66
2024-03-19T12:19:17.650Z,12.68
2024-03-19T12:20:17.701Z,12.71
2024-03-19T12:21:17.673Z,12.72
2024-03-19T12:22:17.686Z,12.72
2024-03-19T12:23:17.620Z,12.70
2024-03-19T12:24:17.608Z,12.68
2024-03-19T12:25:17.664Z,12.66
2024-03-19T12:26:17.577Z,12.64
2024-03-19T12:27:17.581Z,12.62
2024-03-19T12:28:17.576Z,12.61
2024-03-19T12:29:17.649Z,12.60
2024-03-19T12:30:17.555Z,12.60
2024-03-19T12:31:17.660Z,12.60
2024-03-19T12:32:17.565Z,12.60
2024-03-19T12:33:17.499Z,12.60
2024-03-19T12:34:17.504Z,12.60
2024-03-19T12:35:17.557Z,12.60
2024-03-19T12:36:17.501Z,12.60
2024-03-19T12:37:17.519Z,12.60
2024-03-19T12:38:17.465Z,12.60
2024-03-19T12:39:17.435Z,12.59
2024-03-19T12:40:17.441Z,12.57
2024-03-19T12:41:17.538Z,12.55
2024-03-19T12:42:17.429Z,12.54
2024-03-19T12:43:17.432Z,12.53
2024-03-19T12:44:17.394Z,12.53
2024-03-19T12:45:17.385Z,12.52
2024-03-19T12:46:17.393Z,12.50
2024-03-19T12:47:17.378Z,12.47
2024-03-19T12:48:17.447Z,12.45
2024-03-19T12:49:17.362Z,12.44
2024-03-19T12:50:17.338Z,12.44
2024-03-19T12:51:17.340Z,12.45
2024-03-19T12:52:17.332Z,12.48
2024-03-19T12:53:17.284Z,12.50
2024-03-19T12:54:17.349Z,12.52
2024-03-19T12:55:17.302Z,12.54
2024-03-19T12:56:17.288Z,12.56
2024-03-19T12:57:25.565Z,12.57
2024-03-19T12:58:18.267Z,12.57
2024-03-19T12:59:17.231Z,12.57
2024-03-19T13:00:17.233Z,12.57
2024-03-19T13:01:17.230Z,12.57
2024-03-19T13:02:17.302Z,12.58
2024-03-19T13:03:17.209Z,12.59
2024-03-19T13:04:17.239Z,12.60
2024-03-19T13:05:17.158Z,12.61
2024-03-19T13:06:17.136Z,12.61
2024-03-19T13:07:17.136Z,12.61
2024-03-19T13:08:17.171Z,12.60
2024-03-19T13:09:17.124Z,12.59
2024-03-19T13:10:17.116Z,12.57
2024-03-19T13:11:17.093Z,12.55
2024-03-19T13:12:17.118Z,12.54